Time;durP1;ratioP1;P1;durP2;ratioP2;P2;SDS_P1;SDS_P2;PMS_P1;PMS_P2;Temp;Humidity;BMP_temperature;BMP_pressure;BME280_temperature;BME280_humidity;BME280_pressure;Samples;Min_cycle;Max_cycle;Signal;HPM_P1;HPM_P2
2022/06/11 00:01:36;;;;;;;15.38;10.32;;;;;;;16.77;59.00;99431.35;1698692;84;21010;-76
2022/06/11 00:04:07;;;;;;;18.00;10.48;;;;;;;16.73;58.71;99434.67;1698225;84;21131;-75
2022/06/11 00:06:41;;;;;;;14.13;9.90;;;;;;;16.69;58.97;99430.03;1698194;84;21134;-74
2022/06/11 00:09:09;;;;;;;17.27;11.08;;;;;;;16.65;59.03;99424.50;1698444;84;21073;-74
2022/06/11 00:11:36;;;;;;;14.20;11.03;;;;;;;16.63;59.19;99437.52;1698423;84;21132;-74
2022/06/11 00:14:04;;;;;;;18.05;11.03;;;;;;;16.59;58.08;99435.50;1698401;84;21076;-75
2022/06/11 00:16:31;;;;;;;18.52;10.88;;;;;;;16.60;58.07;99428.41;1698316;84;21904;-75
2022/06/11 00:18:59;;;;;;;15.80;10.53;;;;;;;16.63;58.48;99433.53;1698219;83;21007;-75
2022/06/11 00:21:27;;;;;;;15.35;10.38;;;;;;;16.64;58.72;99428.13;1698287;84;21093;-75
2022/06/11 00:23:53;;;;;;;16.52;9.98;;;;;;;16.64;58.60;99426.80;1668391;84;21125;-74
2022/06/11 00:26:20;;;;;;;17.60;10.50;;;;;;;16.64;58.77;99429.45;1638235;87;21050;-74
2022/06/11 00:28:49;;;;;;;19.77;11.10;;;;;;;16.62;58.70;99427.34;1636659;87;21115;-75
2022/06/11 00:31:16;;;;;;;13.62;9.73;;;;;;;16.61;59.15;99428.31;1636981;87;21082;-74
2022/06/11 00:33:42;;;;;;;13.60;10.23;;;;;;;16.61;59.52;99429.64;1637914;87;21048;-75
2022/06/11 00:36:11;;;;;;;16.35;10.68;;;;;;;16.58;59.61;99428.98;1661161;86;21195;-75
2022/06/11 00:38:39;;;;;;;15.20;10.13;;;;;;;16.56;59.51;99427.73;1660988;86;21124;-75
2022/06/11 00:41:06;;;;;;;16.70;10.65;;;;;;;16.55;59.66;99436.64;1661062;86;21532;-75
2022/06/11 00:43:32;;;;;;;21.30;9.93;;;;;;;16.51;59.92;99433.80;1660880;85;21092;-74
2022/06/11 00:46:21;;;;;;;16.12;9.58;;;;;;;16.48;60.02;99436.16;1661004;86;21048;-75
2022/06/11 00:48:49;;;;;;;18.77;10.50;;;;;;;16.45;60.36;99435.49;1638135;86;21017;-74
2022/06/11 00:51:19;;;;;;;15.75;10.60;;;;;;;16.40;60.65;99434.44;1663519;86;21642;-74
2022/06/11 00:53:51;;;;;;;12.65;9.90;;;;;;;16.33;60.87;99439.74;1663623;85;21508;-74
2022/06/11 00:56:24;;;;;;;13.70;9.40;;;;;;;16.29;60.76;99444.38;1663464;86;21029;-75
2022/06/11 00:58:53;;;;;;;19.62;10.38;;;;;;;16.26;60.82;99449.02;1663537;86;21102;-74
2022/06/11 01:01:22;;;;;;;14.55;9.83;;;;;;;16.24;61.01;99446.45;1663498;85;21104;-74
2022/06/11 01:03:54;;;;;;;15.43;9.68;;;;;;;16.22;61.03;99447.48;1663580;86;21055;-75
2022/06/11 01:06:31;;;;;;;13.08;9.40;;;;;;;16.20;61.03;99448.89;1663073;86;21128;-75
2022/06/11 01:09:25;;;;;;;14.05;9.63;;;;;;;16.16;60.97;99452.69;1663400;86;21578;-75
2022/06/11 01:12:05;;;;;;;16.17;9.73;;;;;;;16.11;61.13;99458.73;1672192;85;21051;-75
2022/06/11 01:14:46;;;;;;;18.12;10.05;;;;;;;16.09;61.32;99456.66;1663747;86;21119;-74
2022/06/11 01:17:42;;;;;;;13.05;9.73;;;;;;;16.05;61.27;99451.13;1663645;86;21044;-75
2022/06/11 01:20:30;;;;;;;16.35;9.43;;;;;;;16.04;61.48;99452.05;1656275;85;21752;-75
2022/06/11 01:23:30;;;;;;;17.30;10.08;;;;;;;16.02;61.75;99456.61;1662842;85;21139;-76
2022/06/11 01:26:39;;;;;;;15.38;9.88;;;;;;;15.97;61.82;99460.39;1663594;86;21669;-75
2022/06/11 01:29:28;;;;;;;14.75;9.53;;;;;;;15.94;61.58;99457.91;1663372;86;20972;-76
2022/06/11 01:32:02;;;;;;;15.13;10.53;;;;;;;15.92;61.81;99462.45;1663451;86;21136;-76
2022/06/11 01:35:08;;;;;;;17.32;10.60;;;;;;;15.91;61.39;99467.37;1663634;86;21576;-74
2022/06/11 01:37:40;;;;;;;13.60;9.50;;;;;;;15.88;61.14;99459.58;1663607;86;21077;-74
2022/06/11 01:40:15;;;;;;;13.60;9.98;;;;;;;15.84;61.12;99463.37;1663298;86;21182;-75
2022/06/11 01:42:47;;;;;;;14.50;10.55;;;;;;;15.83;61.53;99468.28;1663251;86;21629;-75
2022/06/11 01:45:24;;;;;;;14.87;10.30;;;;;;;15.82;61.91;99463.05;1663579;86;21152;-75
2022/06/11 01:47:51;;;;;;;14.87;11.00;;;;;;;15.75;61.81;99461.19;1663545;86;21139;-76
2022/06/11 01:50:22;;;;;;;18.27;9.35;;;;;;;15.71;61.74;99466.30;1662447;86;21056;-75
2022/06/11 01:53:01;;;;;;;12.85;9.70;;;;;;;15.68;62.15;99458.52;1660859;86;21122;-76
2022/06/11 01:56:00;;;;;;;15.35;9.68;;;;;;;15.67;62.23;99466.07;1659976;86;21122;-75
2022/06/11 01:59:03;;;;;;;15.50;10.30;;;;;;;15.63;62.32;99466.72;1660286;86;21072;-75
2022/06/11 02:01:49;;;;;;;14.15;9.88;;;;;;;15.60;62.54;99464.23;1660848;86;21115;-74
2022/06/11 02:04:40;;;;;;;14.70;10.15;;;;;;;15.60;62.76;99469.09;1659879;85;21172;-74
2022/06/11 02:07:41;;;;;;;14.95;9.48;;;;;;;15.64;62.68;99472.91;1658303;86;21097;-74
2022/06/11 02:10:18;;;;;;;13.78;9.28;;;;;;;15.61;62.94;99468.13;1660912;85;21115;-75
2022/06/11 02:13:01;;;;;;;14.03;9.38;;;;;;;15.59;63.21;99477.98;1659952;86;21115;-74
2022/06/11 02:15:43;;;;;;;16.60;10.13;;;;;;;15.59;63.37;99474.00;1637158;84;22724;-75
2022/06/11 02:18:14;;;;;;;14.23;9.30;;;;;;;15.58;63.27;99477.61;1697513;83;21010;-75
2022/06/11 02:20:58;;;;;;;11.85;9.48;;;;;;;15.55;63.16;99473.80;1694083;84;21021;-75
2022/06/11 02:23:33;;;;;;;15.08;9.13;;;;;;;15.56;63.50;99480.80;1718726;82;22095;-74
2022/06/11 02:26:04;;;;;;;15.58;9.83;;;;;;;15.56;63.83;99486.09;1730186;82;21065;-74
2022/06/11 02:28:34;;;;;;;13.58;9.40;;;;;;;15.57;63.69;99477.70;1730724;82;21797;-75
2022/06/11 02:31:04;;;;;;;13.68;8.93;;;;;;;15.58;63.66;99482.91;1730549;82;21573;-75
2022/06/11 02:33:32;;;;;;;14.10;10.05;;;;;;;15.61;63.98;99484.52;1728544;82;21089;-75
2022/06/11 02:36:07;;;;;;;11.75;9.00;;;;;;;15.65;64.26;99479.90;1730594;82;21663;-75
2022/06/11 02:38:34;;;;;;;;;;;;;;;15.66;64.30;99481.63;1732127;82;21584;-75
2022/06/11 02:41:12;;;;;;;14.73;8.68;;;;;;;15.69;64.06;99483.63;1727899;83;21131;-76
2022/06/11 02:43:39;;;;;;;14.98;8.93;;;;;;;15.74;64.08;99484.70;1727365;83;21033;-75
2022/06/11 02:48:51;;;;;;;;;;;;;;;15.83;64.51;99487.33;1730895;83;21096;-74
2022/06/11 02:51:20;;;;;;;14.25;9.38;;;;;;;15.85;64.05;99488.94;1728021;82;20221;-75
2022/06/11 02:53:47;;;;;;;13.25;8.73;;;;;;;15.89;64.13;99489.16;1727995;82;22748;-76
2022/06/11 02:56:13;;;;;;;16.10;9.30;;;;;;;15.94;64.26;99492.41;1728014;83;21049;-76
2022/06/11 02:58:41;;;;;;;14.73;9.45;;;;;;;15.97;64.69;99492.23;1728134;83;21064;-75
2022/06/11 03:01:08;;;;;;;14.30;9.55;;;;;;;16.04;64.56;99494.52;1727955;83;21592;-75
2022/06/11 03:03:35;;;;;;;13.08;9.60;;;;;;;16.11;64.24;99490.59;1728141;83;21556;-75
2022/06/11 03:06:02;;;;;;;14.25;9.58;;;;;;;16.17;64.99;99490.21;1728032;82;21059;-75
2022/06/11 03:08:29;;;;;;;20.20;10.13;;;;;;;16.22;64.77;99489.47;1728037;83;21030;-75
2022/06/11 03:10:57;;;;;;;21.60;10.45;;;;;;;16.29;63.82;99492.17;1728354;83;21544;-74
2022/06/11 03:13:26;;;;;;;19.00;10.65;;;;;;;16.40;63.14;99501.30;1727811;83;21078;-75
2022/06/11 03:15:54;;;;;;;17.60;10.45;;;;;;;16.47;62.64;99495.52;1728010;83;21095;-76
2022/06/11 03:18:22;;;;;;;16.90;10.40;;;;;;;16.56;61.07;99491.48;1730631;82;21145;-76
2022/06/11 03:20:51;;;;;;;15.50;9.98;;;;;;;16.69;60.88;99492.46;1727920;83;21028;-75
2022/06/11 03:23:18;;;;;;;22.58;10.53;;;;;;;16.80;60.27;99491.80;1728328;83;21087;-75
2022/06/11 03:25:45;;;;;;;15.90;10.63;;;;;;;16.91;60.31;99497.80;1730522;82;21136;-75
2022/06/11 03:28:16;;;;;;;16.12;10.40;;;;;;;17.02;59.60;99495.84;1728127;83;21074;-75
2022/06/11 03:30:45;;;;;;;20.43;10.90;;;;;;;17.13;59.71;99493.83;1730345;82;20988;-75
2022/06/11 03:33:12;;;;;;;16.67;9.63;;;;;;;17.24;58.90;99495.35;1727621;83;21032;-75
2022/06/11 03:35:38;;;;;;;19.20;9.95;;;;;;;17.34;58.73;99489.83;1728241;83;21055;-75
2022/06/11 03:38:07;;;;;;;15.95;8.98;;;;;;;17.46;58.99;99494.36;1730446;82;22160;-75
2022/06/11 03:40:34;;;;;;;13.15;8.78;;;;;;;17.61;59.48;99495.69;1697415;84;21085;-75
2022/06/11 03:43:01;;;;;;;15.28;9.08;;;;;;;17.79;58.71;99497.16;1730364;82;21795;-75
2022/06/11 03:45:28;;;;;;;19.77;9.68;;;;;;;17.97;59.02;99496.48;1697134;84;21007;-75
2022/06/11 03:47:55;;;;;;;18.87;9.85;;;;;;;18.11;61.98;99502.22;1730245;82;21045;-75
2022/06/11 03:50:29;;;;;;;20.05;10.58;;;;;;;18.24;59.99;99501.39;1697842;84;21691;-75
2022/06/11 03:52:55;;;;;;;20.82;10.60;;;;;;;18.36;59.37;99492.59;1697964;84;21015;-75
2022/06/11 03:55:22;;;;;;;28.40;11.45;;;;;;;18.49;58.86;99498.81;1723566;83;21094;-75
2022/06/11 03:57:49;;;;;;;18.60;10.58;;;;;;;18.61;60.04;99493.58;1723944;83;20982;-75
2022/06/11 04:01:14;;;;;;;16.23;10.13;;;;;;;18.75;59.89;99497.50;1723742;83;21068;-75
2022/06/11 04:02:47;;;;;;;16.67;10.08;;;;;;;18.92;59.50;99497.69;1723626;83;21073;-75
2022/06/11 04:05:14;;;;;;;21.20;10.85;;;;;;;19.04;58.89;99491.49;1723545;83;21132;-76
2022/06/11 04:07:40;;;;;;;19.57;10.53;;;;;;;19.16;58.83;99489.77;1723639;83;22156;-75
2022/06/11 04:10:09;;;;;;;18.30;9.63;;;;;;;19.26;59.73;99498.83;1723617;83;21041;-76
2022/06/11 04:12:36;;;;;;;17.25;10.00;;;;;;;19.36;58.75;99494.19;1723589;83;21520;-76
2022/06/11 04:15:05;;;;;;;15.88;9.35;;;;;;;19.47;57.90;99495.61;1723798;83;21049;-75
2022/06/11 04:17:32;;;;;;;20.25;10.75;;;;;;;19.61;58.09;99499.45;1723955;83;21037;-76
2022/06/11 04:19:58;;;;;;;21.60;10.00;;;;;;;19.72;59.61;99499.15;1719797;83;21607;-75
2022/06/11 04:22:25;;;;;;;17.73;9.15;;;;;;;19.85;59.00;99498.66;1669796;85;21082;-75
2022/06/11 04:24:51;;;;;;;16.20;9.53;;;;;;;19.97;57.85;99503.58;1694637;84;21081;-76
2022/06/11 04:27:19;;;;;;;14.20;7.55;;;;;;;20.08;56.55;99502.80;1673221;83;21131;-76
2022/06/11 04:29:50;;;;;;;10.35;6.45;;;;;;;20.24;55.40;99506.03;1660912;86;21063;-76
2022/06/11 04:32:17;;;;;;;11.78;8.18;;;;;;;20.39;52.53;99510.22;1661224;86;21786;-76
2022/06/11 04:34:45;;;;;;;15.88;8.15;;;;;;;20.56;53.12;99510.73;1660639;86;21463;-76
2022/06/11 04:37:17;;;;;;;13.85;7.47;;;;;;;20.68;53.62;99507.64;1661069;86;21103;-76
2022/06/11 04:39:44;;;;;;;11.88;8.10;;;;;;;20.78;52.60;99512.17;1661017;84;21594;-76
2022/06/11 04:42:11;;;;;;;15.85;8.30;;;;;;;20.90;53.08;99508.19;1660748;86;21024;-76
2022/06/11 04:44:39;;;;;;;17.73;8.60;;;;;;;21.00;53.61;99509.17;1660610;86;21175;-76
2022/06/11 04:47:06;;;;;;;17.55;8.33;;;;;;;21.11;54.20;99513.67;1660786;86;21068;-76
2022/06/11 04:49:33;;;;;;;15.23;7.40;;;;;;;21.21;54.16;99509.79;1661303;85;21130;-76
2022/06/11 04:51:59;;;;;;;14.63;7.33;;;;;;;21.32;54.64;99505.78;1654949;84;21095;-75
2022/06/11 04:54:26;;;;;;;14.95;7.60;;;;;;;21.44;54.64;99510.15;1653502;86;21523;-76
2022/06/11 04:56:52;;;;;;;14.03;7.40;;;;;;;21.54;52.98;99503.61;1634172;87;21534;-76
2022/06/11 04:59:19;;;;;;;12.58;6.35;;;;;;;21.65;53.19;99506.74;1634129;87;21028;-76
2022/06/11 05:01:46;;;;;;;14.10;6.45;;;;;;;21.77;53.62;99504.89;1634322;87;21096;-76
2022/06/11 05:04:13;;;;;;;11.75;5.97;;;;;;;21.88;53.10;99504.87;1634125;87;21079;-76
2022/06/11 05:06:43;;;;;;;10.72;4.67;;;;;;;21.99;51.81;99506.66;1634320;86;21162;-76
2022/06/11 05:09:12;;;;;;;7.92;4.00;;;;;;;22.10;49.57;99509.31;1634260;86;21543;-76
2022/06/11 05:11:39;;;;;;;9.85;4.28;;;;;;;22.21;46.67;99501.23;1634248;87;21078;-76
2022/06/11 05:14:05;;;;;;;10.38;4.40;;;;;;;22.32;45.14;99506.22;1634374;86;21146;-76
2022/06/11 05:16:33;;;;;;;11.30;5.20;;;;;;;22.45;44.41;99510.91;1634061;87;21032;-76
2022/06/11 05:19:00;;;;;;;8.08;4.42;;;;;;;22.56;43.45;99508.19;1619352;87;21106;-76
2022/06/11 05:21:26;;;;;;;5.42;4.10;;;;;;;22.68;42.79;99508.09;1634059;86;21514;-75
2022/06/11 05:23:54;;;;;;;7.85;4.58;;;;;;;22.80;41.85;99508.41;1633976;87;21094;-76
2022/06/11 05:26:25;;;;;;;6.55;4.50;;;;;;;22.92;41.65;99516.73;1634090;87;21088;-76
2022/06/11 05:28:51;;;;;;;11.60;4.15;;;;;;;23.00;41.00;99516.08;1634001;87;21082;-76
2022/06/11 05:31:18;;;;;;;7.08;4.37;;;;;;;23.10;40.63;99517.02;1634368;87;21174;-76
2022/06/11 05:33:45;;;;;;;12.00;4.53;;;;;;;23.20;41.23;99518.41;1634362;87;21498;-76
2022/06/11 05:36:13;;;;;;;10.55;4.30;;;;;;;23.27;41.08;99519.56;1634045;87;21135;-76
2022/06/11 05:38:39;;;;;;;12.13;4.75;;;;;;;23.36;41.01;99518.73;1634245;87;21095;-76
2022/06/11 05:41:05;;;;;;;7.60;4.53;;;;;;;23.47;39.68;99522.31;1634134;87;21036;-77
2022/06/11 05:43:32;;;;;;;11.12;5.60;;;;;;;23.58;40.59;99514.66;1634271;87;21534;-76
2022/06/11 05:46:16;;;;;;;10.82;4.90;;;;;;;23.68;40.53;99511.00;1634064;87;21975;-76
2022/06/11 05:48:50;;;;;;;7.95;5.17;;;;;;;23.81;38.61;99517.98;1634334;87;21123;-75
2022/06/11 05:51:20;;;;;;;12.05;5.05;;;;;;;23.93;38.52;99511.52;1634085;86;21138;-75
2022/06/11 05:53:49;;;;;;;13.28;4.95;;;;;;;24.05;38.49;99514.43;1633927;86;21048;-76
2022/06/11 05:56:16;;;;;;;8.08;5.22;;;;;;;24.14;37.56;99510.08;1634066;87;21107;-76
2022/06/11 05:58:46;;;;;;;16.87;5.97;;;;;;;24.24;37.58;99509.58;1633977;87;21154;-76
2022/06/11 06:01:15;;;;;;;14.43;5.28;;;;;;;24.34;36.86;99512.75;1633625;87;21098;-75
2022/06/11 06:03:42;;;;;;;14.03;5.35;;;;;;;24.45;37.10;99516.66;1634103;87;21143;-76
2022/06/11 06:06:09;;;;;;;8.90;5.67;;;;;;;24.55;36.67;99517.52;1634321;87;21080;-76
2022/06/11 06:08:35;;;;;;;11.00;6.28;;;;;;;24.65;36.55;99509.45;1634256;87;21090;-76
2022/06/11 06:11:04;;;;;;;10.28;6.22;;;;;;;24.75;37.67;99515.66;1634152;86;21190;-76
2022/06/11 06:13:48;;;;;;;9.75;6.12;;;;;;;24.86;36.69;99514.63;1634294;87;21080;-76
2022/06/11 06:16:21;;;;;;;11.43;6.60;;;;;;;24.96;36.08;99510.58;1634181;87;21146;-76
2022/06/11 06:18:49;;;;;;;13.45;7.45;;;;;;;25.07;35.02;99513.61;1633955;86;21107;-77
2022/06/11 06:21:17;;;;;;;9.85;6.55;;;;;;;25.16;35.67;99510.86;1634064;87;21067;-76
2022/06/11 06:23:45;;;;;;;13.50;7.72;;;;;;;25.28;34.81;99514.77;1634166;87;21594;-76
2022/06/11 06:26:12;;;;;;;11.48;6.65;;;;;;;25.39;35.03;99510.54;1634170;87;21158;-76
2022/06/11 06:28:38;;;;;;;12.95;7.28;;;;;;;25.50;34.14;99510.83;1690195;83;21094;-76
2022/06/11 06:31:06;;;;;;;9.55;6.42;;;;;;;25.60;33.78;99511.63;1715105;83;21043;-76
2022/06/11 06:33:32;;;;;;;14.98;7.70;;;;;;;25.68;33.24;99507.69;1665790;83;21118;-76
2022/06/11 06:36:01;;;;;;;11.73;7.60;;;;;;;25.76;33.34;99510.98;1661838;85;21551;-76
2022/06/11 06:38:28;;;;;;;14.63;7.90;;;;;;;25.83;32.71;99508.03;1661681;86;21102;-76
2022/06/11 06:40:54;;;;;;;15.23;8.13;;;;;;;25.91;31.89;99509.47;1661649;86;22099;-77
2022/06/11 06:43:21;;;;;;;11.35;7.22;;;;;;;25.99;32.09;99506.53;1661756;85;21570;-76
2022/06/11 06:45:47;;;;;;;13.10;7.10;;;;;;;26.08;32.15;99503.77;1661673;86;21083;-76
2022/06/11 06:48:14;;;;;;;15.08;7.80;;;;;;;26.16;32.49;99497.63;1661930;85;21194;-76
2022/06/11 06:50:41;;;;;;;17.15;7.80;;;;;;;26.26;31.84;99509.18;1661564;85;21068;-76
2022/06/11 06:53:07;;;;;;;16.35;8.10;;;;;;;26.32;31.80;99504.49;1661823;84;21146;-76
2022/06/11 06:55:34;;;;;;;12.13;7.90;;;;;;;26.42;32.73;99515.72;1661929;85;21075;-76
2022/06/11 06:58:00;;;;;;;12.93;7.10;;;;;;;26.52;31.69;99511.08;1661681;85;21078;-76
2022/06/11 07:00:28;;;;;;;14.28;7.83;;;;;;;26.64;31.52;99515.77;1661607;86;21134;-76
2022/06/11 07:02:54;;;;;;;11.38;6.83;;;;;;;26.73;30.30;99511.27;1661579;85;21061;-76
2022/06/11 07:05:23;;;;;;;14.55;8.60;;;;;;;26.82;31.11;99512.52;1661644;86;21068;-76
2022/06/11 07:07:50;;;;;;;12.68;8.05;;;;;;;26.92;30.77;99517.83;1661639;86;21009;-76
2022/06/11 07:10:18;;;;;;;10.28;4.97;;;;;;;27.01;30.21;99524.95;1661852;86;21107;-76
2022/06/11 07:12:44;;;;;;;11.10;6.12;;;;;;;27.09;29.01;99516.07;1661614;85;21626;-76
2022/06/11 07:15:12;;;;;;;8.73;6.17;;;;;;;27.17;28.85;99517.98;1661545;86;21004;-77
2022/06/11 07:17:46;;;;;;;10.72;4.55;;;;;;;27.27;29.98;99514.66;1661862;86;21091;-77
2022/06/11 07:20:17;;;;;;;9.13;5.17;;;;;;;27.34;28.45;99518.95;1661811;86;21118;-76
2022/06/11 07:22:54;;;;;;;10.72;5.78;;;;;;;27.43;28.12;99520.67;1661711;86;21031;-76
2022/06/11 07:25:20;;;;;;;24.72;8.13;;;;;;;27.48;28.69;99515.63;1661869;85;22245;-76
2022/06/11 07:27:51;;;;;;;10.40;5.75;;;;;;;27.55;28.44;99518.52;1671257;85;21621;-76
2022/06/11 07:30:22;;;;;;;5.50;3.37;;;;;;;27.61;28.07;99513.31;1661576;86;21066;-75
2022/06/11 07:32:53;;;;;;;10.15;3.72;;;;;;;27.71;27.22;99513.19;1661762;86;21070;-77
2022/06/11 07:35:19;;;;;;;12.35;7.60;;;;;;;27.78;26.74;99506.62;1661645;85;21095;-76
2022/06/11 07:37:46;;;;;;;8.83;6.33;;;;;;;27.84;27.16;99511.86;1661685;86;21200;-77
2022/06/11 07:40:13;;;;;;;8.03;5.35;;;;;;;27.90;27.01;99509.86;1661454;85;21337;-76
2022/06/11 07:42:41;;;;;;;10.28;4.42;;;;;;;27.94;26.95;99509.89;1661812;85;21063;-76
2022/06/11 07:45:08;;;;;;;7.80;3.98;;;;;;;28.03;27.20;99510.77;1661860;86;21146;-77
2022/06/11 07:47:57;;;;;;;8.90;3.80;;;;;;;28.09;26.65;99512.80;1661914;86;21094;-76
2022/06/11 07:50:06;;;;;;;5.60;3.37;;;;;;;28.16;25.85;99509.78;1659848;85;21948;-76
2022/06/11 07:52:32;;;;;;;10.65;5.87;;;;;;;28.23;25.99;99509.97;1661607;84;21059;-76
2022/06/11 07:54:59;;;;;;;6.55;5.35;;;;;;;28.31;26.60;99514.00;1661813;85;21652;-76
2022/06/11 07:57:27;;;;;;;11.83;7.08;;;;;;;28.40;26.56;99508.95;1661734;86;21055;-76
2022/06/11 07:59:54;;;;;;;11.50;7.10;;;;;;;28.47;26.01;99499.65;1661672;86;21113;-77
2022/06/11 08:02:21;;;;;;;8.65;4.72;;;;;;;28.53;26.76;99510.64;1661867;86;21822;-76
2022/06/11 08:04:48;;;;;;;7.33;3.30;;;;;;;28.60;26.68;99515.42;1661470;86;21154;-76
2022/06/11 08:07:15;;;;;;;14.00;3.45;;;;;;;28.66;26.75;99510.66;1662047;85;21051;-77
2022/06/11 08:09:43;;;;;;;6.65;3.12;;;;;;;28.75;26.03;99513.72;1661659;85;21051;-76
2022/06/11 08:12:10;;;;;;;4.87;2.70;;;;;;;28.84;25.18;99504.55;1661767;85;21503;-76
2022/06/11 08:14:37;;;;;;;5.62;2.55;;;;;;;28.91;25.44;99505.55;1661824;86;21209;-77
2022/06/11 08:17:05;;;;;;;7.62;2.58;;;;;;;28.97;24.68;99509.45;1661604;85;22109;-77
2022/06/11 08:19:33;;;;;;;7.25;2.92;;;;;;;29.04;24.67;99513.67;1661865;86;21106;-76
2022/06/11 08:21:59;;;;;;;4.10;2.72;;;;;;;29.08;24.72;99518.58;1661729;85;20988;-76
2022/06/11 08:24:26;;;;;;;6.75;2.92;;;;;;;29.13;25.04;99516.67;1661855;86;21023;-76
2022/06/11 08:26:52;;;;;;;3.50;3.00;;;;;;;29.16;24.54;99522.27;1661558;85;21752;-76
2022/06/11 08:29:20;;;;;;;4.37;2.80;;;;;;;29.18;24.11;99515.67;1665303;85;21198;-77
2022/06/11 08:31:48;;;;;;;5.87;3.33;;;;;;;29.21;23.82;99516.69;1661662;86;21059;-77
2022/06/11 08:34:14;;;;;;;8.43;4.03;;;;;;;29.25;22.62;99513.13;1661947;85;21012;-76
2022/06/11 08:36:41;;;;;;;4.28;3.87;;;;;;;29.31;24.10;99511.08;1670023;83;21591;-77
2022/06/11 08:39:08;;;;;;;5.10;4.20;;;;;;;29.39;24.39;99510.22;1634765;87;21507;-77
2022/06/11 08:41:37;;;;;;;8.15;4.90;;;;;;;29.48;23.86;99511.86;1637530;86;21059;-77
2022/06/11 08:44:12;;;;;;;7.60;5.55;;;;;;;29.56;24.25;99513.19;1649209;85;21160;-77
2022/06/11 08:46:41;;;;;;;11.08;5.80;;;;;;;29.64;25.09;99503.66;1667156;83;21634;-77
2022/06/11 08:49:18;;;;;;;9.80;5.55;;;;;;;29.72;24.65;99501.40;1639595;87;21145;-77
2022/06/11 08:52:01;;;;;;;6.92;4.95;;;;;;;29.79;24.68;99500.21;1637164;86;22305;-76
2022/06/11 08:54:36;;;;;;;7.33;5.00;;;;;;;29.85;23.88;99487.83;1675276;85;22223;-77
2022/06/11 08:57:38;;;;;;;8.30;5.00;;;;;;;29.90;22.47;99490.84;1641959;87;21150;-76
2022/06/11 09:00:18;;;;;;;8.60;4.58;;;;;;;29.83;22.01;99490.71;1642252;87;21185;-76
2022/06/11 09:03:20;;;;;;;6.15;5.00;;;;;;;29.74;23.93;99487.17;1642727;87;21106;-76
2022/06/11 09:06:15;;;;;;;7.15;4.55;;;;;;;29.82;24.21;99480.88;1641271;87;21147;-76
2022/06/11 09:09:05;;;;;;;;;;;;;;;29.95;22.88;99480.30;1644341;86;23135;-76
2022/06/11 09:12:11;;;;;;;7.42;4.30;;;;;;;30.02;24.54;99489.40;1667736;86;32675;-76
2022/06/11 09:15:06;;;;;;;7.40;3.60;;;;;;;30.15;23.73;99486.09;1675056;85;21562;-77
2022/06/11 09:17:53;;;;;;;6.87;4.47;;;;;;;30.20;20.91;99480.97;1674997;84;21032;-76
2022/06/11 09:20:52;;;;;;;8.48;5.25;;;;;;;30.06;22.65;99479.02;1669930;85;21569;-76
2022/06/11 09:23:35;;;;;;;11.45;4.60;;;;;;;30.05;22.69;99478.19;1669948;85;21026;-77
2022/06/11 09:26:32;;;;;;;6.72;4.92;;;;;;;30.12;23.67;99481.86;1675346;85;21177;-76
2022/06/11 09:29:07;;;;;;;8.70;5.35;;;;;;;30.21;23.50;99473.14;1675036;85;21657;-76
2022/06/11 09:31:48;;;;;;;6.75;5.08;;;;;;;30.33;24.05;99478.49;1646616;87;21107;-77
2022/06/11 09:34:36;;;;;;;7.65;4.85;;;;;;;30.46;23.94;99474.34;1675691;85;21203;-76
2022/06/11 09:37:19;;;;;;;7.22;5.10;;;;;;;30.54;22.81;99471.55;1670272;85;21529;-76
2022/06/11 09:40:05;;;;;;;13.35;4.95;;;;;;;30.66;23.12;99472.79;1670047;85;21200;-77
2022/06/11 09:42:56;;;;;;;;;;;;;;;30.75;23.41;99464.91;1672775;85;22302;-76
2022/06/11 09:45:29;;;;;;;9.23;5.25;;;;;;;30.89;23.54;99466.47;1669999;85;20247;-77
2022/06/11 09:48:21;;;;;;;7.83;5.15;;;;;;;31.02;23.63;99469.41;1675285;85;21581;-76
2022/06/11 09:50:52;;;;;;;6.83;5.08;;;;;;;31.16;23.36;99468.23;1675006;85;21052;-76
2022/06/11 09:53:39;;;;;;;9.03;4.80;;;;;;;31.25;22.80;99464.38;1668664;85;21015;-75
2022/06/11 09:56:35;;;;;;;9.65;4.80;;;;;;;31.29;22.61;99463.82;1667050;85;21156;-75
2022/06/11 09:59:23;;;;;;;6.37;4.58;;;;;;;31.35;22.54;99467.64;1665415;86;21125;-76
2022/06/11 10:04:46;;;;;;;9.68;4.97;;;;;;;31.41;21.67;99461.98;1644960;85;21126;-76
2022/06/11 10:07:25;;;;;;;6.30;4.47;;;;;;;31.42;22.45;99465.02;1667276;86;22028;-76
2022/06/11 10:10:13;;;;;;;6.92;4.78;;;;;;;31.51;22.98;99464.45;1665063;86;21200;-76
2022/06/11 10:12:47;;;;;;;10.53;4.40;;;;;;;31.59;23.03;99447.98;1663674;86;21089;-76
2022/06/11 10:15:23;;;;;;;7.90;4.30;;;;;;;31.74;22.96;99455.62;1665564;86;21829;-76
2022/06/11 10:18:12;;;;;;;4.92;4.03;;;;;;;31.85;22.71;99453.73;1664782;86;21015;-75
2022/06/11 10:21:04;;;;;;;7.10;4.42;;;;;;;31.95;22.97;99449.87;1665597;86;21065;-76
2022/06/11 10:23:55;;;;;;;4.97;3.95;;;;;;;32.06;22.81;99443.95;1665021;86;21663;-76
2022/06/11 10:26:31;;;;;;;5.50;4.33;;;;;;;32.17;22.08;99444.77;1665081;86;21081;-76
2022/06/11 10:29:13;;;;;;;6.47;4.20;;;;;;;32.24;21.30;99444.83;1665295;85;21135;-76
2022/06/11 10:31:48;;;;;;;8.38;4.53;;;;;;;32.28;21.14;99443.91;1672639;84;21062;-76
2022/06/11 10:34:26;;;;;;;8.10;4.75;;;;;;;32.32;21.59;99437.05;1679299;85;21086;-77
2022/06/11 10:37:22;;;;;;;7.05;4.58;;;;;;;32.33;20.88;99436.00;1681875;84;21151;-76
2022/06/11 10:40:13;;;;;;;7.03;4.40;;;;;;;32.32;21.93;99432.44;1693133;84;21151;-76
2022/06/11 10:43:06;;;;;;;9.88;4.00;;;;;;;32.43;21.54;99431.08;1692835;84;22386;-76
2022/06/11 10:45:32;;;;;;;8.25;4.28;;;;;;;32.47;21.74;99434.25;1692950;84;21062;-76
2022/06/11 10:48:00;;;;;;;8.33;4.67;;;;;;;32.50;20.57;99436.05;1692979;84;21566;-76
2022/06/11 10:50:34;;;;;;;6.33;3.47;;;;;;;32.51;19.63;99426.82;1692988;84;21071;-76
2022/06/11 10:53:36;;;;;;;10.03;4.00;;;;;;;32.40;19.69;99430.11;1687084;84;21206;-76
2022/06/11 10:56:17;;;;;;;10.75;4.10;;;;;;;32.29;19.17;99428.74;1692733;84;21161;-76
2022/06/11 10:59:01;;;;;;;5.28;3.50;;;;;;;32.10;18.69;99422.09;1692925;84;21091;-76
2022/06/11 11:01:33;;;;;;;8.08;4.40;;;;;;;31.77;19.21;99425.28;1693003;84;21100;-76
2022/06/11 11:04:30;;;;;;;10.50;4.33;;;;;;;31.68;20.26;99416.94;1692758;84;21147;-76
2022/06/11 11:07:18;;;;;;;6.25;4.00;;;;;;;31.72;20.46;99422.30;1692573;84;21199;-76
2022/06/11 11:09:45;;;;;;;4.65;4.00;;;;;;;31.81;20.80;99417.61;1677930;84;21598;-75
2022/06/11 11:12:21;;;;;;;7.50;4.42;;;;;;;31.98;20.64;99421.74;1693064;84;21139;-76
2022/06/11 11:14:58;;;;;;;7.95;4.40;;;;;;;32.01;19.71;99414.56;1693224;84;21079;-76
2022/06/11 11:17:26;;;;;;;7.17;4.37;;;;;;;31.91;18.91;99412.69;1693244;84;21065;-76
2022/06/11 11:20:32;;;;;;;6.67;4.08;;;;;;;31.72;19.49;99412.78;1693030;84;21003;-76
2022/06/11 11:23:13;;;;;;;8.60;4.42;;;;;;;31.57;19.47;99406.06;1604818;89;21160;-75
2022/06/11 11:26:00;;;;;;;8.30;4.17;;;;;;;31.69;19.80;99406.89;1677248;84;21527;-76
2022/06/11 11:28:31;;;;;;;5.58;3.95;;;;;;;31.82;19.63;99399.70;1677321;84;21412;-76
2022/06/11 11:31:06;;;;;;;6.92;4.70;;;;;;;31.94;20.01;99400.55;1692666;84;21135;-76
2022/06/11 11:33:37;;;;;;;9.10;4.00;;;;;;;32.03;20.22;99401.59;1693000;84;21107;-76
2022/06/11 11:36:26;;;;;;;5.53;3.83;;;;;;;32.11;20.74;99403.38;1692806;84;21128;-76
2022/06/11 11:39:06;;;;;;;5.90;4.03;;;;;;;32.21;21.58;99395.72;1693092;84;21674;-76
2022/06/11 11:41:34;;;;;;;8.15;4.30;;;;;;;32.40;20.23;99400.16;1686691;84;21359;-76
2022/06/11 11:44:01;;;;;;;4.28;3.87;;;;;;;32.52;19.65;99399.92;1693360;84;21032;-76
2022/06/11 11:46:34;;;;;;;10.85;4.45;;;;;;;32.59;19.28;99388.54;1692942;84;21004;-76
2022/06/11 11:49:02;;;;;;;7.55;4.37;;;;;;;32.61;19.04;99389.73;1693528;84;21145;-77
2022/06/11 11:51:35;;;;;;;5.20;4.20;;;;;;;32.62;19.30;99383.27;1692785;84;21095;-76
2022/06/11 11:54:08;;;;;;;4.95;3.90;;;;;;;32.57;19.29;99389.27;1695707;84;21084;-76
2022/06/11 11:56:44;;;;;;;4.08;3.67;;;;;;;32.47;18.90;99387.42;1697354;84;21132;-75
2022/06/11 11:59:49;;;;;;;4.47;3.70;;;;;;;32.45;19.32;99386.78;1698293;84;21007;-75
2022/06/11 12:02:33;;;;;;;8.30;4.08;;;;;;;32.51;18.85;99390.59;1698146;84;21136;-76